x

Freeport, Tx - 60 Nm South Of Freeport, Tx (42019) Wave Buoy

10:50pm - Sat 18th Apr 2015 All times are CDT. -5 hours from GMT.

  • Sig Wave height 3.9ft
  • Swell Direction
  • Peak Period 6s
  • Average Period 5s
  • Wind
    11mph, 13mph gusts
  • Sea Temp 75°f
  • Air Temp 74°f
  • Sea Pressure 1008.4mb
  • Freeport, Tx - 60 Nm South Of Freeport, Tx
  • Freeport, Tx - 60 Nm South Of Freeport, Tx

More Historic Weather Station data

Upgrade to MSW Pro to gain access to the past 30 days of data for over 8000 Wavebouys and Weather Stations around the globe.

Join Pro

Comparision Forecast

View Surf forecast
   
Sat 04/18 10:50pm 4ft 6s 5s 11 13 mph 1008.4mb 75f 74f
9:50pm 4ft 6s 5s 9
mph
1008.7mb 75f 74f
8:50pm 4ft 6s 5s 7 9 mph 1008.8mb 75f 74f
7:50pm 4.5ft 7s 5s 18 20 mph 1008.8mb 75f 72f
6:50pm 4ft 5s 4s 27 31 mph 1011.2mb 75f 69f
5:50pm 4.5ft 5s 5s 13
mph
1009.5mb 75f 75f
4:50pm 4.5ft 5s 4s 20 25 mph 1008.8mb 75f 75f
3:50pm 3ft 5s 4s 22 27 mph 1009mb 75f 76f
2:50pm 3ft 4s 4s 18 20 mph 1009.9mb 75f 76f
1:50pm 2.5ft 5s 4s 16 20 mph 1009.1mb 75f 75f
12:50pm 2.5ft 6s 4s 4 7 mph 1011.2mb 75f 74f
11:50am 2.5ft 6s 4s 4 7 mph 1012.4mb 75f 74f
10:50am 2.5ft 4s 4s 4
mph
1011.3mb 75f 75f
9:50am 2.5ft 5s 4s 13 16 mph 1010.4mb 75f 75f
8:50am 2.5ft 5s 4s 16 18 mph 1010.2mb 74f 74f
7:50am 2.5ft 4s 4s 9 11 mph 1009.3mb 74f 74f
6:50am 3ft 5s 4s 9 11 mph 1008.8mb 74f 73f
5:50am 3ft 5s 4s 16 18 mph 1008.7mb 74f 73f
4:50am 3.5ft 5s 4s 18 22 mph 1009.1mb 74f 71f
3:50am  -   -   -  13 18 mph 1010.6mb 74f 71f
2:50am 4ft 6s 4s 22 29 mph - 75f 71f
1:50am 4ft 6s 5s 16 18 mph 1011.2mb 75f 73f
12:50am 3.5ft 6s 5s 16 20 mph 1012mb 75f 73f
Fri 04/17 11:50pm 4ft 6s 5s 11 13 mph 1012.1mb 75f 75f
10:50pm 4ft 6s 5s 7 9 mph 1012.6mb 75f 75f
9:50pm 4ft 7s 5s 2 4 mph 1012.1mb 75f 76f
8:50pm 4ft 6s 5s 4
mph
1011mb 75f 76f
7:50pm 4.5ft 7s 5s 9 11 mph 1010.2mb 75f 76f
6:50pm 4.5ft 7s 5s 16 20 mph 1009mb 75f 76f
5:50pm 4.5ft 7s 5s 16 20 mph 1009.3mb 75f 76f
4:50pm 5ft 7s 5s 18 22 mph 1009.6mb 75f 76f
3:50pm  -   -   -  18 22 mph 1010.4mb 75f 76f
2:50pm 5ft 7s 5s 13 16 mph 1011.2mb 75f 76f
1:50pm 5ft 7s 5s 13 16 mph 1012.1mb 75f 76f
12:50pm 5.5ft 7s 5s 16 18 mph 1012.8mb 75f 76f
11:50am 5.5ft 7s 5s 18 20 mph 1013.3mb 75f 76f
10:50am 6ft 7s 5s 20 25 mph 1013.1mb 75f 75f
9:50am 6.5ft 7s 5s 20 25 mph 1013mb 75f 75f
8:50am 5.5ft 7s 5s 22 27 mph 1013.2mb 75f 74f
7:50am 6ft 7s 5s 20 27 mph 1013.1mb 74f 74f
6:50am 6ft 7s 5s 20 22 mph 1013mb 74f 74f
5:50am 6ft 7s 5s 22 27 mph 1011.7mb 74f 74f
4:50am 6ft 7s 5s 22 27 mph 1012.4mb 74f 74f
3:50am 5.5ft 5s 5s 20 25 mph 1013.3mb 75f 74f
2:50am 5ft 8s 5s 20 27 mph 1013.3mb 75f 74f
1:50am 5ft 7s 5s 22 25 mph 1013.4mb 75f 74f
12:50am 4.5ft 8s 5s 18 20 mph 1013.5mb 75f 74f
Thu 04/16 11:50pm 4.5ft 7s 6s 13 16 mph 1013.5mb 75f 75f
10:50pm 4.5ft 8s 6s 13 16 mph 1013.1mb 75f 76f
9:50pm 4.5ft 7s 6s 13 16 mph 1012.6mb 75f 76f
8:50pm 5ft 8s 6s 11
mph
1012mb 75f 76f
7:50pm 4.5ft 7s 6s 9 11 mph 1011.4mb 75f 76f
6:50pm 3.5ft 7s 5s 11 13 mph 1010.8mb 76f 77f
5:50pm 3ft 6s 5s 9 11 mph 1011.2mb 76f 77f
4:50pm 2.5ft 7s 5s 9 11 mph 1011.7mb 76f 77f
3:50pm 2.5ft 7s 5s 11 13 mph 1012mb 76f 76f
2:50pm 2.5ft 5s 4s 11 13 mph 1012.6mb 76f 77f
1:50pm 2.5ft 6s 5s 9 11 mph 1013.4mb 76f 77f
12:50pm 2.5ft 6s 4s 7 9 mph 1014.4mb 76f 76f
11:50am 2.5ft 6s 4s 7
mph
1014.7mb 75f 76f
10:50am 2.5ft 4s 4s 7
mph
1014.7mb 74f 76f
9:50am 2.5ft 6s 4s 11 13 mph 1014mb 74f 76f
8:50am 2.5ft 6s 4s 9 11 mph 1013mb 74f 75f
7:50am 2.5ft 6s 4s 13 16 mph 1012.2mb 74f 75f
6:50am 2.5ft 6s 4s 11 13 mph 1012.5mb 74f 74f
5:50am 2.5ft 4s 4s 13 16 mph 1012.3mb 74f 74f
4:50am 2.5ft 4s 4s 13 18 mph 1012.1mb 74f 74f
3:50am 2.5ft 6s 4s 16 18 mph 1012.9mb 74f 73f
2:50am 2ft 6s 4s 16 18 mph 1013.3mb 74f 73f
1:50am 2ft 7s 4s 7
mph
1013.5mb 74f 74f
12:50am 2.5ft 6s 4s 7
mph
1013.7mb 74f 74f
Wed 04/15 11:50pm 2.5ft 6s 4s 7 9 mph 1014mb 74f 73f
10:50pm 2.5ft 6s 4s 7 9 mph 1014.1mb 74f 72f
9:50pm 2.5ft 6s 4s 7 9 mph 1014.4mb 74f 72f
8:50pm 2.5ft 4s 4s 7 9 mph 1014.2mb 74f 73f
7:50pm 2.5ft 7s 4s 11 13 mph 1014.1mb 74f 73f
6:50pm 2.5ft 7s 4s 13 16 mph 1013.9mb 74f 73f
5:50pm 2.5ft 6s 4s 11 13 mph 1013.3mb 74f 73f
4:50pm 2.5ft 6s 4s 9 11 mph 1013.6mb 74f 72f
3:50pm 2.5ft 7s 4s 11 13 mph 1013.6mb 74f 71f
2:50pm  -   -   -  11 13 mph 1016mb 74f 71f
1:50pm 2ft 7s 5s 13 18 mph - 74f 71f
11:50am 2ft 7s 4s 13 16 mph 1016.4mb 74f 72f
10:50am 1.6ft 6s 4s 13 16 mph 1016.5mb 74f 72f
9:50am 1.6ft 7s 5s 13 16 mph 1016.3mb 74f 72f
8:50am 1.6ft 6s 5s 7 9 mph 1015.9mb 74f 73f
7:50am 1.6ft 7s 5s 7 9 mph 1015.2mb 74f 72f
6:50am 1.6ft 7s 5s 7 9 mph 1014.5mb 74f 71f
5:50am 1.6ft 6s 5s 9
mph
1014mb 74f 71f